createdAt,value
2022-11-01T00:03:04.873Z,101157.97
2022-11-01T00:10:07.007Z,101147.13
2022-11-01T00:17:08.599Z,101131.25
2022-11-01T00:24:10.243Z,101113.16
2022-11-01T00:31:12.914Z,101077.22
2022-11-01T00:38:15.711Z,101098.34
2022-11-01T00:45:18.053Z,101073.59
2022-11-01T00:52:19.634Z,101120.22
2022-11-01T00:59:21.180Z,101100.69
2022-11-01T01:06:22.750Z,101090.81
2022-11-01T01:13:24.403Z,101083.72
2022-11-01T01:20:26.048Z,101057.38
2022-11-01T01:27:27.602Z,101040.66
2022-11-01T01:34:29.158Z,101036.69
2022-11-01T01:41:49.290Z,101008.16
2022-11-01T01:48:53.661Z,101065.16
2022-11-01T01:56:09.929Z,101059.53
2022-11-01T02:03:11.494Z,101040.38
2022-11-01T02:10:14.471Z,101036.88
2022-11-01T02:17:30.503Z,101023.56
2022-11-01T02:25:14.067Z,101004.16
2022-11-01T02:32:29.079Z,100981.59
2022-11-01T02:39:33.201Z,100979.94
2022-11-01T02:46:55.884Z,100972.25
2022-11-01T02:54:01.677Z,100964.13
2022-11-01T03:01:03.366Z,100964.03
2022-11-01T03:08:09.789Z,100958.94
2022-11-01T03:15:20.838Z,100967.53
2022-11-01T03:22:28.384Z,100951.59
2022-11-01T03:29:30.748Z,100967.47
2022-11-01T03:36:35.411Z,100980.75
2022-11-01T03:43:36.977Z,100969.19
2022-11-01T03:50:40.149Z,100959.19
2022-11-01T03:57:42.748Z,100957.16
2022-11-01T04:04:44.302Z,100956.59
2022-11-01T04:11:45.871Z,100955.72
2022-11-01T04:19:05.818Z,100955.06
2022-11-01T04:26:07.650Z,100943.47
2022-11-01T04:33:09.470Z,100965.63
2022-11-01T04:40:11.486Z,100969.63
2022-11-01T04:47:13.049Z,100955.53
2022-11-01T04:54:14.634Z,100968.25
2022-11-01T05:01:16.361Z,100953.41
2022-11-01T05:08:17.975Z,100928.19
2022-11-01T05:15:19.512Z,100926.94
2022-11-01T05:22:21.079Z,100933.34
2022-11-01T05:29:32.938Z,100924.00
2022-11-01T05:36:35.041Z,100906.00
2022-11-01T05:43:36.597Z,100922.34
2022-11-01T05:50:38.189Z,100936.25
2022-11-01T05:57:40.662Z,100919.84
2022-11-01T06:04:42.241Z,100922.38
2022-11-01T06:11:43.793Z,100933.84
2022-11-01T06:18:45.384Z,100940.31
2022-11-01T06:25:47.027Z,100914.44
2022-11-01T06:32:48.633Z,100929.50
2022-11-01T06:39:50.512Z,100911.34
2022-11-01T06:46:53.688Z,100927.56
2022-11-01T06:53:55.318Z,100941.06
2022-11-01T07:00:57.028Z,100935.16
2022-11-01T07:07:59.104Z,100943.28
2022-11-01T07:15:00.821Z,100949.25
2022-11-01T07:22:02.377Z,100964.59
2022-11-01T07:29:04.133Z,100959.56
2022-11-01T07:36:05.968Z,100964.81
2022-11-01T07:43:07.655Z,100979.88
2022-11-01T07:50:09.382Z,101011.78
2022-11-01T07:57:10.932Z,100994.28
2022-11-01T08:04:12.514Z,101019.22
2022-11-01T08:11:14.079Z,101032.06
2022-11-01T08:18:16.244Z,101022.06
2022-11-01T08:25:18.828Z,101015.69
2022-11-01T08:32:23.570Z,101016.94
2022-11-01T08:39:26.184Z,101018.69
2022-11-01T08:46:27.765Z,101031.19
2022-11-01T08:53:29.345Z,101004.03
2022-11-01T09:00:30.951Z,101004.25
2022-11-01T09:07:34.546Z,101007.00
2022-11-01T09:14:36.185Z,101021.53
2022-11-01T09:21:37.746Z,100997.91
2022-11-01T09:28:39.318Z,101006.13
2022-11-01T09:35:40.903Z,100997.81
2022-11-01T09:42:43.758Z,101010.28
2022-11-01T09:49:47.283Z,101049.47
2022-11-01T09:57:06.130Z,101039.19
2022-11-01T10:04:39.880Z,101045.06
2022-11-01T10:12:02.027Z,101042.22
2022-11-01T10:19:17.359Z,101041.25
2022-11-01T10:26:25.636Z,101033.72
2022-11-01T10:33:41.365Z,101037.13
2022-11-01T10:41:36.828Z,101054.09
2022-11-01T10:48:42.157Z,101056.16
2022-11-01T10:55:51.293Z,101062.00
2022-11-01T11:02:57.413Z,101053.53
2022-11-01T11:17:46.118Z,101053.25
2022-11-01T11:24:47.714Z,101055.47
2022-11-01T11:31:55.084Z,101067.59
2022-11-01T11:38:56.704Z,101069.97
2022-11-01T11:46:10.309Z,101070.78
2022-11-01T11:53:20.210Z,101077.25
2022-11-01T12:00:23.374Z,101063.63
2022-11-01T12:07:32.468Z,101068.47
2022-11-01T12:14:36.625Z,101082.69
2022-11-01T12:21:40.269Z,101095.34
2022-11-01T12:29:00.218Z,101083.44
2022-11-01T12:36:01.831Z,101086.94
2022-11-01T12:43:14.492Z,101083.44
2022-11-01T12:50:19.713Z,101086.91
2022-11-01T12:57:21.272Z,101102.28
2022-11-01T13:04:44.818Z,101107.72
2022-11-01T13:12:12.532Z,101093.84
2022-11-01T13:19:18.793Z,101091.50
2022-11-01T13:26:27.774Z,101107.72
2022-11-01T13:34:02.078Z,101095.59
2022-11-01T13:41:03.555Z,101093.00
2022-11-01T13:48:40.542Z,101103.91
2022-11-01T13:55:45.304Z,101106.34
2022-11-01T14:02:55.480Z,101108.22
2022-11-01T14:09:57.051Z,101107.38
2022-11-01T14:17:20.128Z,101110.56
2022-11-01T14:24:24.335Z,101120.84
2022-11-01T14:31:27.576Z,101125.06
2022-11-01T14:38:35.873Z,101126.81
2022-11-01T14:45:42.253Z,101136.22
2022-11-01T14:52:47.114Z,101139.19
2022-11-01T14:59:48.691Z,101136.34
2022-11-01T15:06:50.710Z,101148.25
2022-11-01T15:13:53.282Z,101152.09
2022-11-01T15:20:55.731Z,101154.84
2022-11-01T15:27:57.356Z,101153.66
2022-11-01T15:35:00.272Z,101159.25
2022-11-01T15:42:01.829Z,101171.38
2022-11-01T15:49:07.285Z,101179.88
2022-11-01T15:56:18.002Z,101192.09
2022-11-01T16:03:27.585Z,101181.06
2022-11-01T16:10:31.952Z,101179.56
2022-11-01T16:17:35.229Z,101189.31
2022-11-01T16:24:36.819Z,101185.72
2022-11-01T16:31:41.844Z,101209.94
2022-11-01T16:38:44.040Z,101202.78
2022-11-01T16:45:45.678Z,101211.41
2022-11-01T16:52:47.308Z,101226.22
2022-11-01T16:59:50.909Z,101223.75
2022-11-01T17:06:52.550Z,101234.44
2022-11-01T17:13:54.114Z,101247.41
2022-11-01T17:20:55.706Z,101249.59
2022-11-01T17:27:57.298Z,101258.94
2022-11-01T17:34:58.835Z,101275.41
2022-11-01T17:42:00.478Z,101283.66
2022-11-01T17:49:02.033Z,101291.41
2022-11-01T17:56:03.603Z,101292.69
2022-11-01T18:03:05.185Z,101290.78
2022-11-01T18:10:17.556Z,101301.31
2022-11-01T18:17:26.740Z,101300.69
2022-11-01T18:24:37.985Z,101312.09
2022-11-01T18:31:40.843Z,101310.34
2022-11-01T18:39:03.777Z,101327.84
2022-11-01T18:46:29.907Z,101320.53
2022-11-01T18:53:32.360Z,101327.16
2022-11-01T19:00:33.910Z,101321.19
2022-11-01T19:08:04.867Z,101329.63
2022-11-01T19:15:11.567Z,101332.31
2022-11-01T19:22:38.617Z,101335.91
2022-11-01T19:29:40.183Z,101332.91
2022-11-01T19:36:42.123Z,101348.97
2022-11-01T19:43:43.842Z,101350.22
2022-11-01T19:50:46.089Z,101362.28
2022-11-01T19:57:47.635Z,101358.13
2022-11-01T20:04:56.302Z,101359.53
2022-11-01T20:11:57.891Z,101368.28
2022-11-01T20:18:59.500Z,101379.63
2022-11-01T20:26:01.863Z,101381.25
2022-11-01T20:33:03.579Z,101389.13
2022-11-01T20:40:06.208Z,101384.38
2022-11-01T20:47:07.809Z,101389.50
2022-11-01T20:54:12.751Z,101391.75
2022-11-01T21:01:17.780Z,101386.78
2022-11-01T21:08:24.236Z,101401.81
2022-11-01T21:15:25.659Z,101392.50
2022-11-01T21:22:28.475Z,101382.22
2022-11-01T21:29:30.098Z,101394.13
2022-11-01T21:36:39.477Z,101393.53
2022-11-01T21:43:42.250Z,101382.28
2022-11-01T21:50:43.820Z,101373.75
2022-11-01T21:57:45.390Z,101378.72
2022-11-01T22:04:46.965Z,101374.53
2022-11-01T22:11:48.535Z,101384.09
2022-11-01T22:18:50.147Z,101385.16
2022-11-01T22:25:51.804Z,101388.03
2022-11-01T22:32:53.390Z,101382.81
2022-11-01T22:39:54.971Z,101389.28
2022-11-01T22:47:00.331Z,101391.38
2022-11-01T22:54:01.906Z,101394.34
2022-11-01T23:01:26.031Z,101388.25
2022-11-01T23:08:32.941Z,101387.66
2022-11-01T23:15:34.528Z,101388.09
2022-11-01T23:22:36.408Z,101382.88
2022-11-01T23:29:37.952Z,101393.09
2022-11-01T23:36:39.526Z,101394.22
2022-11-01T23:43:41.294Z,101381.22
2022-11-01T23:50:42.887Z,101382.13
2022-11-01T23:57:44.450Z,101384.00
